createdAt,value
2023-01-02T00:00:15.794Z,42.40
2023-01-02T00:02:46.261Z,41.20
2023-01-02T00:05:13.538Z,41.63
2023-01-02T00:07:40.672Z,41.10
2023-01-02T00:10:07.923Z,33.13
2023-01-02T00:12:35.097Z,36.03
2023-01-02T00:15:03.067Z,37.73
2023-01-02T00:17:30.187Z,47.53
2023-01-02T00:19:57.439Z,39.93
2023-01-02T00:22:24.553Z,40.73
2023-01-02T00:24:51.745Z,39.87
2023-01-02T00:27:18.903Z,37.60
2023-01-02T00:29:46.047Z,34.60
2023-01-02T00:32:13.261Z,30.13
2023-01-02T00:34:40.419Z,30.70
2023-01-02T00:37:07.538Z,24.93
2023-01-02T00:39:34.666Z,28.80
2023-01-02T00:42:01.822Z,27.97
2023-01-02T00:44:28.920Z,28.23
2023-01-02T00:46:56.093Z,31.27
2023-01-02T00:49:23.267Z,28.07
2023-01-02T00:51:50.381Z,27.97
2023-01-02T00:54:17.565Z,28.00
2023-01-02T00:56:44.745Z,34.20
2023-01-02T00:59:11.904Z,30.73
2023-01-02T01:01:39.255Z,28.13
2023-01-02T01:04:06.528Z,28.40
2023-01-02T01:06:34.415Z,31.37
2023-01-02T01:09:01.561Z,27.10
2023-01-02T01:11:28.708Z,28.63
2023-01-02T01:13:55.814Z,25.90
2023-01-02T01:16:23.118Z,27.20
2023-01-02T01:18:50.375Z,28.73
2023-01-02T01:21:18.267Z,27.97
2023-01-02T01:23:45.571Z,28.27
2023-01-02T01:26:13.270Z,27.67
2023-01-02T01:28:40.563Z,24.47
2023-01-02T01:31:08.527Z,23.43
2023-01-02T01:33:35.751Z,26.50
2023-01-02T01:36:05.810Z,24.93
2023-01-02T01:38:33.195Z,30.63
2023-01-02T01:41:00.532Z,26.93
2023-01-02T01:43:43.947Z,26.77
2023-01-02T01:46:29.232Z,27.30
2023-01-02T01:49:11.311Z,21.83
2023-01-02T01:51:40.123Z,18.30
2023-01-02T01:54:10.727Z,18.17
2023-01-02T01:56:38.609Z,19.53
2023-01-02T01:59:05.776Z,20.40
2023-01-02T02:01:32.988Z,18.43
2023-01-02T02:04:00.393Z,20.90
2023-01-02T02:06:27.633Z,28.23
2023-01-02T02:08:54.760Z,22.77
2023-01-02T02:11:21.939Z,21.70
2023-01-02T02:13:49.181Z,19.53
2023-01-02T02:16:16.372Z,23.17
2023-01-02T02:19:00.525Z,21.63
2023-01-02T02:21:46.425Z,26.50
2023-01-02T02:24:32.406Z,25.83
2023-01-02T02:27:14.731Z,20.77
2023-01-02T02:30:00.647Z,23.43
2023-01-02T02:32:33.537Z,26.17
2023-01-02T02:35:05.154Z,27.43
2023-01-02T02:37:35.483Z,22.10
2023-01-02T02:40:08.417Z,25.67
2023-01-02T02:42:50.543Z,22.70
2023-01-02T02:45:25.563Z,27.77
2023-01-02T02:47:52.719Z,23.53
2023-01-02T02:50:34.461Z,21.47
2023-01-02T02:53:10.119Z,24.30
2023-01-02T02:55:39.139Z,25.00
2023-01-02T02:58:06.403Z,27.43
2023-01-02T03:00:33.573Z,31.60
2023-01-02T03:03:00.789Z,29.73
2023-01-02T03:05:38.534Z,31.97
2023-01-02T03:08:12.617Z,33.93
2023-01-02T03:10:58.757Z,38.90
2023-01-02T03:13:40.950Z,43.47
2023-01-02T03:16:20.591Z,41.73
2023-01-02T03:18:50.794Z,37.37
2023-01-02T03:21:19.122Z,36.60
2023-01-02T03:23:46.600Z,37.13
2023-01-02T03:26:14.244Z,38.70
2023-01-02T03:28:41.921Z,35.43
2023-01-02T03:31:09.823Z,37.00
2023-01-02T03:33:37.710Z,40.53
2023-01-02T03:36:05.715Z,52.00
2023-01-02T03:38:34.923Z,43.93
2023-01-02T03:41:10.368Z,46.27
2023-01-02T03:43:37.801Z,62.03
2023-01-02T03:46:17.175Z,83.63
2023-01-02T03:48:45.244Z,76.43
2023-01-02T03:51:12.387Z,69.87
2023-01-02T03:53:40.039Z,57.63
2023-01-02T03:56:16.325Z,69.60
2023-01-02T03:58:59.542Z,68.90
2023-01-02T04:01:33.756Z,71.70
2023-01-02T04:04:27.324Z,61.97
2023-01-02T04:06:56.160Z,105.93
2023-01-02T04:09:23.740Z,54.33
2023-01-02T04:11:52.986Z,52.37
2023-01-02T04:14:22.503Z,59.83
2023-01-02T04:16:49.612Z,58.70
2023-01-02T04:19:21.969Z,65.70
2023-01-02T04:21:49.128Z,60.03
2023-01-02T04:24:20.332Z,59.43
2023-01-02T04:26:48.954Z,52.33
2023-01-02T04:29:16.058Z,47.67
2023-01-02T04:32:06.476Z,49.63
2023-01-02T04:34:34.218Z,48.87
2023-01-02T04:37:01.412Z,47.17
2023-01-02T04:39:29.127Z,38.73
2023-01-02T04:41:56.280Z,31.30
2023-01-02T04:44:23.387Z,37.17
2023-01-02T04:46:50.535Z,44.93
2023-01-02T04:49:17.673Z,50.00
2023-01-02T04:51:44.838Z,43.23
2023-01-02T04:54:12.224Z,43.43
2023-01-02T04:56:39.429Z,45.03
2023-01-02T04:59:06.564Z,48.37
2023-01-02T05:01:33.821Z,48.50
2023-01-02T05:04:01.022Z,41.37
2023-01-02T05:06:28.132Z,48.37
2023-01-02T05:08:55.267Z,53.33
2023-01-02T05:11:22.433Z,53.50
2023-01-02T05:13:49.578Z,67.20
2023-01-02T05:16:16.880Z,85.63
2023-01-02T05:18:44.064Z,223.97
2023-01-02T05:21:31.981Z,140.07
2023-01-02T05:23:59.858Z,50.03
2023-01-02T05:26:27.050Z,47.00
2023-01-02T05:28:54.430Z,45.87
2023-01-02T05:31:21.731Z,45.77
2023-01-02T05:33:55.425Z,54.00
2023-01-02T05:36:22.769Z,47.90
2023-01-02T05:38:49.961Z,50.23
2023-01-02T05:41:17.161Z,75.07
2023-01-02T05:43:44.294Z,62.37
2023-01-02T05:46:12.354Z,78.57
2023-01-02T05:48:39.651Z,90.47
2023-01-02T05:51:07.238Z,96.13
2023-01-02T05:53:34.394Z,111.97
2023-01-02T05:56:05.338Z,187.63
2023-01-02T05:58:35.438Z,213.20
2023-01-02T06:01:06.451Z,184.73
2023-01-02T06:03:33.669Z,177.20
2023-01-02T06:06:07.557Z,188.23
2023-01-02T06:08:34.851Z,202.53
2023-01-02T06:11:02.282Z,214.87
2023-01-02T06:13:30.177Z,199.40
2023-01-02T06:15:57.753Z,209.30
2023-01-02T06:18:25.047Z,186.87
2023-01-02T06:20:52.230Z,150.87
2023-01-02T06:23:19.394Z,145.43
2023-01-02T06:25:46.508Z,162.17
2023-01-02T06:28:13.675Z,154.80
2023-01-02T06:30:40.838Z,134.23
2023-01-02T06:33:07.948Z,105.10
2023-01-02T06:35:35.135Z,98.70
2023-01-02T06:38:02.273Z,94.10
2023-01-02T06:40:29.465Z,92.07
2023-01-02T06:43:00.002Z,94.77
2023-01-02T06:45:27.538Z,94.47
2023-01-02T06:47:58.423Z,83.60
2023-01-02T06:50:31.247Z,67.30
2023-01-02T06:53:01.717Z,63.33
2023-01-02T06:55:28.835Z,54.57
2023-01-02T06:57:55.956Z,61.63
2023-01-02T07:00:23.100Z,65.40
2023-01-02T07:02:50.363Z,72.50
2023-01-02T07:05:24.296Z,63.57
2023-01-02T07:07:51.874Z,63.87
2023-01-02T07:10:19.023Z,52.43
2023-01-02T07:12:46.174Z,54.50
2023-01-02T07:15:13.361Z,60.27
2023-01-02T07:17:40.477Z,66.90
2023-01-02T07:20:07.914Z,56.77
2023-01-02T07:22:35.134Z,64.50
2023-01-02T07:25:02.379Z,81.83
2023-01-02T07:27:30.210Z,79.70
2023-01-02T07:29:57.363Z,74.83
2023-01-02T07:32:27.546Z,74.60
2023-01-02T07:34:54.806Z,79.00
2023-01-02T07:37:21.993Z,73.03
2023-01-02T07:39:49.121Z,85.60
2023-01-02T07:42:16.232Z,95.07
2023-01-02T07:44:43.409Z,85.50
2023-01-02T07:47:10.528Z,86.37
2023-01-02T07:49:37.649Z,91.33
2023-01-02T07:52:04.841Z,85.80
2023-01-02T07:54:31.948Z,87.43
2023-01-02T07:56:59.050Z,92.43
2023-01-02T07:59:26.298Z,86.50
2023-01-02T08:01:53.551Z,89.90
2023-01-02T08:04:20.805Z,93.63
2023-01-02T08:06:48.044Z,82.07
2023-01-02T08:09:15.165Z,102.10
2023-01-02T08:11:42.304Z,102.73
2023-01-02T08:14:09.620Z,83.40
2023-01-02T08:16:36.896Z,77.77
2023-01-02T08:19:04.039Z,88.33
2023-01-02T08:21:31.233Z,79.60
2023-01-02T08:23:58.393Z,79.27
2023-01-02T08:26:25.622Z,81.30
2023-01-02T08:28:52.778Z,85.57
2023-01-02T08:31:20.761Z,82.77
2023-01-02T08:33:47.990Z,113.83
2023-01-02T08:36:15.321Z,155.80
2023-01-02T08:38:42.716Z,118.10
2023-01-02T08:41:09.936Z,99.17
2023-01-02T08:43:37.318Z,98.17
2023-01-02T08:46:07.707Z,97.50
2023-01-02T08:48:35.192Z,91.87
2023-01-02T08:51:02.713Z,118.77
2023-01-02T08:53:29.826Z,91.27
2023-01-02T08:56:15.086Z,128.27
2023-01-02T08:58:43.058Z,99.63
2023-01-02T09:01:12.482Z,102.03
2023-01-02T09:03:39.714Z,98.60
2023-01-02T09:06:06.899Z,97.47
2023-01-02T09:08:34.052Z,143.57
2023-01-02T09:11:09.877Z,125.80
2023-01-02T09:13:36.987Z,128.93
2023-01-02T09:16:04.214Z,132.53
2023-01-02T09:18:31.371Z,153.07
2023-01-02T09:20:58.514Z,145.25
2023-01-02T09:23:25.630Z,169.77
2023-01-02T09:25:52.782Z,146.98
2023-01-02T09:28:19.885Z,132.85
2023-01-02T09:30:47.063Z,119.55
2023-01-02T09:33:14.255Z,130.55
2023-01-02T09:35:41.394Z,104.22
2023-01-02T09:38:08.512Z,105.00
2023-01-02T09:40:36.049Z,83.47
2023-01-02T09:43:03.164Z,79.47
2023-01-02T09:45:30.473Z,74.55
2023-01-02T09:47:57.640Z,61.20
2023-01-02T09:50:28.284Z,51.03
2023-01-02T09:52:56.407Z,48.75
2023-01-02T09:55:32.201Z,45.15
2023-01-02T09:58:04.616Z,43.40
2023-01-02T10:00:35.395Z,41.88
2023-01-02T10:03:24.490Z,36.45
2023-01-02T10:06:08.824Z,30.52
2023-01-02T10:08:49.213Z,33.78
2023-01-02T10:11:16.408Z,30.95
2023-01-02T10:16:33.975Z,30.77
2023-01-02T10:19:02.067Z,50.17
2023-01-02T10:21:33.467Z,70.75
2023-01-02T10:24:14.510Z,80.78
2023-01-02T10:26:42.582Z,42.65
2023-01-02T10:29:28.585Z,45.78
2023-01-02T10:32:00.381Z,29.17
2023-01-02T10:34:30.992Z,31.02
2023-01-02T10:37:01.782Z,27.58
2023-01-02T10:39:33.758Z,25.88
2023-01-02T10:42:01.038Z,16.73
2023-01-02T10:44:34.620Z,38.95
2023-01-02T10:47:10.194Z,45.45
2023-01-02T10:49:37.872Z,41.83
2023-01-02T10:52:10.588Z,42.03
2023-01-02T10:54:59.555Z,28.80
2023-01-02T10:57:27.346Z,27.85
2023-01-02T10:59:58.701Z,21.25
2023-01-02T11:02:27.739Z,18.30
2023-01-02T11:04:54.929Z,22.10
2023-01-02T11:07:25.531Z,22.88
2023-01-02T11:09:56.789Z,18.73
2023-01-02T11:12:27.316Z,13.77
2023-01-02T11:14:59.500Z,11.85
2023-01-02T11:17:26.621Z,9.50
2023-01-02T11:19:55.111Z,11.90
2023-01-02T11:22:23.203Z,9.35
2023-01-02T11:25:00.466Z,12.70
2023-01-02T11:27:43.594Z,11.77
2023-01-02T11:30:23.155Z,11.45
2023-01-02T11:32:50.309Z,14.27
2023-01-02T11:35:36.290Z,13.25
2023-01-02T11:38:03.572Z,14.43
2023-01-02T11:40:31.877Z,13.70
2023-01-02T11:43:19.556Z,13.32
2023-01-02T11:45:46.696Z,14.43
2023-01-02T11:48:15.673Z,17.00
2023-01-02T11:50:42.855Z,13.88
2023-01-02T11:53:12.988Z,13.18
2023-01-02T11:55:47.506Z,12.27
2023-01-02T11:58:18.739Z,13.88
2023-01-02T12:00:45.916Z,13.32
2023-01-02T12:03:18.483Z,14.25
2023-01-02T12:05:46.013Z,15.32
2023-01-02T12:08:41.098Z,14.48
2023-01-02T12:11:10.457Z,15.20
2023-01-02T12:13:49.500Z,19.05
2023-01-02T12:16:16.676Z,12.43
2023-01-02T12:18:43.823Z,25.98
2023-01-02T12:21:14.118Z,24.02
2023-01-02T12:23:59.207Z,21.60
2023-01-02T12:26:30.683Z,36.17
2023-01-02T12:29:46.130Z,28.00
2023-01-02T12:32:06.519Z,39.25
2023-01-02T12:34:42.885Z,62.45
2023-01-02T12:37:28.627Z,73.45
2023-01-02T12:40:11.069Z,81.13
2023-01-02T12:42:38.196Z,69.63
2023-01-02T12:45:05.408Z,62.15
2023-01-02T12:47:51.333Z,56.88
2023-01-02T12:50:33.531Z,58.15
2023-01-02T12:53:06.724Z,57.70
2023-01-02T12:55:42.728Z,53.88
2023-01-02T12:58:30.138Z,60.03
2023-01-02T13:01:16.011Z,65.20
2023-01-02T13:03:48.482Z,57.55
2023-01-02T13:06:45.190Z,62.17
2023-01-02T13:09:07.486Z,60.08
2023-01-02T13:11:48.957Z,61.05
2023-01-02T13:14:22.781Z,63.88
2023-01-02T13:16:56.451Z,50.55
2023-01-02T13:19:39.191Z,39.30
2023-01-02T13:22:15.288Z,33.05
2023-01-02T13:24:42.468Z,37.40
2023-01-02T13:27:09.613Z,36.20
2023-01-02T13:29:46.218Z,31.10
2023-01-02T13:32:13.938Z,36.67
2023-01-02T13:34:51.749Z,39.33
2023-01-02T13:37:28.011Z,35.40
2023-01-02T13:39:58.810Z,27.30
2023-01-02T13:42:45.929Z,28.25
2023-01-02T13:45:15.905Z,25.10
2023-01-02T13:47:48.195Z,33.65
2023-01-02T13:50:18.780Z,28.00
2023-01-02T13:53:15.274Z,30.30
2023-01-02T13:55:42.441Z,28.75
2023-01-02T13:58:17.388Z,31.63
2023-01-02T14:00:53.956Z,32.03
2023-01-02T14:03:24.890Z,30.35
2023-01-02T14:05:59.155Z,29.33
2023-01-02T14:08:32.237Z,33.15
2023-01-02T14:11:23.305Z,27.63
2023-01-02T14:13:51.140Z,26.95
2023-01-02T14:16:21.355Z,31.67
2023-01-02T14:19:08.767Z,30.63
2023-01-02T14:21:36.913Z,28.20
2023-01-02T14:24:18.563Z,35.10
2023-01-02T14:26:49.553Z,33.63
2023-01-02T14:29:16.979Z,40.08
2023-01-02T14:31:44.223Z,33.08
2023-01-02T14:34:12.090Z,37.78
2023-01-02T14:36:43.070Z,28.02
2023-01-02T14:39:20.595Z,32.72
2023-01-02T14:42:09.223Z,47.35
2023-01-02T14:44:40.847Z,114.95
2023-01-02T14:47:17.705Z,100.53
2023-01-02T14:49:44.867Z,72.07
2023-01-02T14:52:16.998Z,63.88
2023-01-02T14:54:48.042Z,57.05
2023-01-02T14:57:27.400Z,69.65
2023-01-02T14:59:54.542Z,74.05
2023-01-02T15:02:22.959Z,103.38
2023-01-02T15:05:03.527Z,100.90
2023-01-02T15:07:50.160Z,120.70
2023-01-02T15:10:18.051Z,112.43
2023-01-02T15:13:04.290Z,116.97
2023-01-02T15:15:33.051Z,130.38
2023-01-02T15:18:07.369Z,126.30
2023-01-02T15:20:34.527Z,143.57
2023-01-02T15:23:01.709Z,150.43
2023-01-02T15:25:34.974Z,208.23
2023-01-02T15:28:02.337Z,187.85
2023-01-02T15:30:30.447Z,190.15
2023-01-02T15:32:57.710Z,198.00
2023-01-02T15:35:25.564Z,206.25
2023-01-02T15:37:52.738Z,165.77
2023-01-02T15:40:35.683Z,213.30
2023-01-02T15:43:25.114Z,150.30
2023-01-02T15:45:52.748Z,166.45
2023-01-02T15:48:21.619Z,161.70
2023-01-02T15:50:52.841Z,181.00
2023-01-02T15:53:34.206Z,185.77
2023-01-02T15:56:01.472Z,221.38
2023-01-02T15:58:32.248Z,372.10
2023-01-02T16:01:18.047Z,251.20
2023-01-02T16:04:01.636Z,202.65
2023-01-02T16:06:34.319Z,167.40
2023-01-02T16:09:02.550Z,148.15
2023-01-02T16:11:29.837Z,158.55
2023-01-02T16:14:19.655Z,151.38
2023-01-02T16:16:50.160Z,206.95
2023-01-02T16:19:30.689Z,270.25
2023-01-02T16:22:02.968Z,224.45
2023-01-02T16:24:30.144Z,287.95
2023-01-02T16:26:57.288Z,232.38
2023-01-02T16:29:25.588Z,203.90
2023-01-02T16:31:55.765Z,174.80
2023-01-02T16:34:25.591Z,176.60
2023-01-02T16:37:09.385Z,232.43
2023-01-02T16:39:42.390Z,255.85
2023-01-02T16:42:28.230Z,228.68
2023-01-02T16:44:55.672Z,188.35
2023-01-02T16:47:24.287Z,176.18
2023-01-02T16:49:51.470Z,154.77
2023-01-02T16:52:18.691Z,172.52
2023-01-02T16:54:49.280Z,242.55
2023-01-02T16:57:21.020Z,218.80
2023-01-02T16:59:48.142Z,258.33
2023-01-02T17:02:15.468Z,243.48
2023-01-02T17:04:42.823Z,217.82
2023-01-02T17:07:10.787Z,180.30
2023-01-02T17:09:37.894Z,176.15
2023-01-02T17:12:05.273Z,231.93
2023-01-02T17:14:33.320Z,268.70
2023-01-02T17:17:00.581Z,273.30
2023-01-02T17:19:27.842Z,291.80
2023-01-02T17:21:54.964Z,255.07
2023-01-02T17:24:22.146Z,230.37
2023-01-02T17:26:49.406Z,371.30
2023-01-02T17:29:16.529Z,245.48
2023-01-02T17:31:43.744Z,246.52
2023-01-02T17:34:10.979Z,283.20
2023-01-02T17:36:38.103Z,338.35
2023-01-02T17:39:05.232Z,268.87
2023-01-02T17:41:32.389Z,205.93
2023-01-02T17:44:02.260Z,189.27
2023-01-02T17:47:04.324Z,203.17
2023-01-02T17:49:18.054Z,213.63
2023-01-02T17:51:45.231Z,222.73
2023-01-02T17:54:12.716Z,229.27
2023-01-02T17:56:39.948Z,246.20
2023-01-02T17:59:07.083Z,297.27
2023-01-02T18:01:34.327Z,232.40
2023-01-02T18:04:01.580Z,201.70
2023-01-02T18:06:28.701Z,180.20
2023-01-02T18:08:56.016Z,192.17
2023-01-02T18:11:23.316Z,208.23
2023-01-02T18:13:51.659Z,306.73
2023-01-02T18:16:21.244Z,417.93
2023-01-02T18:18:48.700Z,433.88
2023-01-02T18:21:16.895Z,457.43
2023-01-02T18:23:44.048Z,514.17
2023-01-02T18:26:12.234Z,530.93
2023-01-02T18:28:41.395Z,529.10
2023-01-02T18:31:15.787Z,510.77
2023-01-02T18:33:43.408Z,442.80
2023-01-02T18:36:20.774Z,455.87
2023-01-02T18:38:50.500Z,416.53
2023-01-02T18:41:20.836Z,385.03
2023-01-02T18:43:49.723Z,391.50
2023-01-02T18:46:20.231Z,335.33
2023-01-02T18:48:47.539Z,282.43
2023-01-02T18:51:16.951Z,272.70
2023-01-02T18:53:46.247Z,292.90
2023-01-02T18:56:14.333Z,233.73
2023-01-02T18:58:43.421Z,199.53
2023-01-02T19:01:27.126Z,200.70
2023-01-02T19:03:58.029Z,204.03
2023-01-02T19:06:26.172Z,204.50
2023-01-02T19:08:53.418Z,246.10
2023-01-02T19:11:40.913Z,275.63
2023-01-02T19:14:14.429Z,310.67
2023-01-02T19:16:41.745Z,280.98
2023-01-02T19:19:10.503Z,253.50
2023-01-02T19:21:38.007Z,218.90
2023-01-02T19:24:05.134Z,214.57
2023-01-02T19:26:36.478Z,233.97
2023-01-02T19:29:03.883Z,229.00
2023-01-02T19:31:32.155Z,248.93
2023-01-02T19:34:00.753Z,396.33
2023-01-02T19:36:30.695Z,314.13
2023-01-02T19:38:57.847Z,260.23
2023-01-02T19:41:43.641Z,228.23
2023-01-02T19:44:10.759Z,228.90
2023-01-02T19:46:37.968Z,233.53
2023-01-02T19:49:05.163Z,235.33
2023-01-02T19:51:32.436Z,273.47
2023-01-02T19:54:03.971Z,262.07
2023-01-02T19:56:31.504Z,261.83
2023-01-02T19:58:58.728Z,236.33
2023-01-02T20:01:25.982Z,139.03
2023-01-02T20:03:53.233Z,146.53
2023-01-02T20:06:20.372Z,142.23
2023-01-02T20:08:47.566Z,142.67
2023-01-02T20:11:34.712Z,165.53
2023-01-02T20:14:01.824Z,164.13
2023-01-02T20:16:29.840Z,174.57
2023-01-02T20:18:57.189Z,170.10
2023-01-02T20:21:25.590Z,176.30
2023-01-02T20:23:56.343Z,187.07
2023-01-02T20:26:23.859Z,182.77
2023-01-02T20:28:50.996Z,183.00
2023-01-02T20:31:18.202Z,199.67
2023-01-02T20:33:45.454Z,211.93
2023-01-02T20:36:13.955Z,222.80
2023-01-02T20:38:41.246Z,267.23
2023-01-02T20:41:08.468Z,225.47
2023-01-02T20:43:35.620Z,233.87
2023-01-02T20:46:02.811Z,243.03
2023-01-02T20:48:30.031Z,259.93
2023-01-02T20:50:57.204Z,289.97
2023-01-02T20:53:24.315Z,287.73
2023-01-02T20:55:51.517Z,273.73
2023-01-02T20:58:18.659Z,276.30
2023-01-02T21:00:45.832Z,230.47
2023-01-02T21:03:13.249Z,220.00
2023-01-02T21:05:40.624Z,218.87
2023-01-02T21:08:08.115Z,217.00
2023-01-02T21:10:36.019Z,225.40
2023-01-02T21:13:12.689Z,235.80
2023-01-02T21:15:47.021Z,238.67
2023-01-02T21:18:24.357Z,222.60
2023-01-02T21:20:52.447Z,223.83
2023-01-02T21:23:19.865Z,213.80
2023-01-02T21:25:47.153Z,189.13
2023-01-02T21:28:14.455Z,383.97
2023-01-02T21:30:41.723Z,216.40
2023-01-02T21:33:08.944Z,200.07
2023-01-02T21:35:36.568Z,260.13
2023-01-02T21:38:03.949Z,187.50
2023-01-02T21:40:31.139Z,144.30
2023-01-02T21:42:58.305Z,206.13
2023-01-02T21:45:25.464Z,244.53
2023-01-02T21:47:52.683Z,203.50
2023-01-02T21:50:19.855Z,204.23
2023-01-02T21:52:47.042Z,226.17
2023-01-02T21:55:17.661Z,136.30
2023-01-02T21:58:12.325Z,65.83
2023-01-02T22:00:35.079Z,61.67
2023-01-02T22:03:02.407Z,47.70
2023-01-02T22:05:29.600Z,30.67
2023-01-02T22:07:56.801Z,35.67
2023-01-02T22:10:23.960Z,33.17
2023-01-02T22:12:51.069Z,37.57
2023-01-02T22:15:18.246Z,37.00
2023-01-02T22:17:45.415Z,36.23
2023-01-02T22:20:12.628Z,30.90
2023-01-02T22:22:39.775Z,29.07
2023-01-02T22:25:07.264Z,37.90
2023-01-02T22:27:34.530Z,40.17
2023-01-02T22:32:49.126Z,96.82
2023-01-02T22:35:16.365Z,34.70
2023-01-02T22:37:43.537Z,31.85
2023-01-02T22:40:11.065Z,86.57
2023-01-02T22:43:02.180Z,61.22
2023-01-02T22:45:31.725Z,34.25
2023-01-02T22:47:59.398Z,30.02
2023-01-02T22:50:27.814Z,61.60
2023-01-02T22:52:55.160Z,72.95
2023-01-02T22:55:23.532Z,39.08
2023-01-02T22:57:51.729Z,38.13
2023-01-02T23:00:19.293Z,28.90
2023-01-02T23:02:46.410Z,15.65
2023-01-02T23:05:17.345Z,16.40
2023-01-02T23:07:44.762Z,67.40
2023-01-02T23:10:11.979Z,71.20
2023-01-02T23:12:39.083Z,29.15
2023-01-02T23:15:06.899Z,30.77
2023-01-02T23:17:52.945Z,21.20
2023-01-02T23:20:20.122Z,21.75
2023-01-02T23:22:48.103Z,20.70
2023-01-02T23:25:15.386Z,15.55
2023-01-02T23:27:42.568Z,15.07
2023-01-02T23:30:10.012Z,12.98
2023-01-02T23:32:37.167Z,13.30
2023-01-02T23:35:04.735Z,13.07
2023-01-02T23:37:31.848Z,12.95
2023-01-02T23:39:59.080Z,12.40
2023-01-02T23:42:26.262Z,12.50
2023-01-02T23:44:53.403Z,11.82
2023-01-02T23:47:20.583Z,14.85
2023-01-02T23:49:47.728Z,14.00
2023-01-02T23:52:14.885Z,12.65
2023-01-02T23:54:42.013Z,12.65
2023-01-02T23:57:09.179Z,11.38
2023-01-02T23:59:36.297Z,20.88
